createdAt,value
2022-12-07T00:00:34.817Z,6.2
2022-12-07T00:01:34.830Z,6.2
2022-12-07T00:02:34.929Z,6.2
2022-12-07T00:03:34.944Z,6.2
2022-12-07T00:04:34.816Z,6.2
2022-12-07T00:05:34.828Z,6.2
2022-12-07T00:06:34.826Z,6.2
2022-12-07T00:07:34.919Z,6.2
2022-12-07T00:08:34.822Z,6.2
2022-12-07T00:09:34.802Z,6.2
2022-12-07T00:11:34.888Z,6.2
2022-12-07T00:12:34.813Z,6.2
2022-12-07T00:13:34.799Z,6.2
2022-12-07T00:14:34.822Z,6.2
2022-12-07T00:15:34.846Z,6.2
2022-12-07T00:16:34.961Z,6.2
2022-12-07T00:17:34.811Z,6.2
2022-12-07T00:18:34.855Z,6.2
2022-12-07T00:19:34.810Z,6.2
2022-12-07T00:20:34.819Z,6.2
2022-12-07T00:21:34.815Z,6.2
2022-12-07T00:22:34.809Z,6.2
2022-12-07T00:23:34.823Z,6.2
2022-12-07T00:24:34.829Z,6.3
2022-12-07T00:25:34.805Z,6.2
2022-12-07T00:26:34.816Z,6.2
2022-12-07T00:27:34.819Z,6.2
2022-12-07T00:28:34.836Z,6.2
2022-12-07T00:29:34.811Z,6.2
2022-12-07T00:30:34.872Z,6.2
2022-12-07T00:31:34.902Z,6.2
2022-12-07T00:32:34.818Z,6.2
2022-12-07T00:33:34.813Z,6.2
2022-12-07T00:34:34.816Z,6.2
2022-12-07T00:35:34.804Z,6.2
2022-12-07T00:36:34.822Z,6.2
2022-12-07T00:37:34.817Z,6.2
2022-12-07T00:38:34.825Z,6.2
2022-12-07T00:39:34.813Z,6.2
2022-12-07T00:40:34.799Z,6.2
2022-12-07T00:41:34.882Z,6.2
2022-12-07T00:42:34.940Z,6.2
2022-12-07T00:43:34.833Z,6.2
2022-12-07T00:44:34.918Z,6.2
2022-12-07T00:45:35.110Z,6.3
2022-12-07T00:46:35.144Z,6.3
2022-12-07T00:47:34.873Z,6.3
2022-12-07T00:48:34.901Z,6.2
2022-12-07T00:49:34.852Z,6.2
2022-12-07T00:50:34.809Z,6.2
2022-12-07T00:51:34.839Z,6.2
2022-12-07T00:52:34.810Z,6.2
2022-12-07T00:53:40.901Z,6.3
2022-12-07T00:54:34.823Z,6.2
2022-12-07T00:55:34.799Z,6.2
2022-12-07T00:56:34.814Z,6.2
2022-12-07T00:57:34.830Z,6.2
2022-12-07T00:58:34.818Z,6.2
2022-12-07T00:59:34.802Z,6.2
2022-12-07T01:00:34.813Z,6.2
2022-12-07T01:01:34.932Z,6.2
2022-12-07T01:02:34.818Z,6.2
2022-12-07T01:03:34.884Z,6.2
2022-12-07T01:04:34.808Z,6.3
2022-12-07T01:05:34.815Z,6.2
2022-12-07T01:06:34.831Z,6.2
2022-12-07T01:07:34.843Z,6.2
2022-12-07T01:08:34.805Z,6.2
2022-12-07T01:09:34.811Z,6.2
2022-12-07T01:10:34.831Z,6.2
2022-12-07T01:11:34.819Z,6.2
2022-12-07T01:12:34.808Z,6.2
2022-12-07T01:13:34.811Z,6.2
2022-12-07T01:14:34.807Z,6.2
2022-12-07T01:15:34.823Z,6.3
2022-12-07T01:16:34.893Z,6.3
2022-12-07T01:17:34.809Z,6.3
2022-12-07T01:18:34.821Z,6.2
2022-12-07T01:19:34.811Z,6.2
2022-12-07T01:20:34.852Z,6.2
2022-12-07T01:21:34.827Z,6.3
2022-12-07T01:22:34.808Z,6.2
2022-12-07T01:23:34.865Z,6.2
2022-12-07T01:24:34.834Z,6.2
2022-12-07T01:25:34.801Z,6.2
2022-12-07T01:26:34.828Z,6.2
2022-12-07T01:27:34.806Z,6.2
2022-12-07T01:28:34.823Z,6.2
2022-12-07T01:29:34.805Z,6.2
2022-12-07T01:30:34.963Z,6.2
2022-12-07T01:31:34.851Z,6.2
2022-12-07T01:32:34.805Z,6.2
2022-12-07T01:33:34.820Z,6.2
2022-12-07T01:34:34.817Z,6.3
2022-12-07T01:35:34.808Z,6.3
2022-12-07T01:36:34.842Z,6.2
2022-12-07T01:37:34.822Z,6.2
2022-12-07T01:38:34.805Z,6.2
2022-12-07T01:39:34.800Z,6.2
2022-12-07T01:40:34.806Z,6.2
2022-12-07T01:41:34.829Z,6.2
2022-12-07T01:42:34.809Z,6.2
2022-12-07T01:43:34.806Z,6.2
2022-12-07T01:44:34.801Z,6.2
2022-12-07T01:45:34.829Z,6.2
2022-12-07T01:46:34.943Z,6.2
2022-12-07T01:47:34.810Z,6.2
2022-12-07T01:48:34.800Z,6.2
2022-12-07T01:49:34.804Z,6.2
2022-12-07T01:50:34.798Z,6.2
2022-12-07T01:51:34.848Z,6.2
2022-12-07T01:52:34.811Z,6.2
2022-12-07T01:53:34.811Z,6.2
2022-12-07T01:54:44.822Z,6.3
2022-12-07T01:55:34.857Z,6.2
2022-12-07T01:56:34.844Z,6.2
2022-12-07T01:57:34.813Z,6.2
2022-12-07T01:58:34.800Z,6.2
2022-12-07T01:59:34.808Z,6.2
2022-12-07T02:00:34.869Z,6.2
2022-12-07T02:01:34.861Z,6.3
2022-12-07T02:02:34.913Z,6.3
2022-12-07T02:04:34.802Z,6.3
2022-12-07T02:05:34.814Z,6.3
2022-12-07T02:06:34.821Z,6.2
2022-12-07T02:07:34.915Z,6.2
2022-12-07T02:08:34.810Z,6.2
2022-12-07T02:09:34.819Z,6.3
2022-12-07T02:10:34.829Z,6.2
2022-12-07T02:11:34.898Z,6.3
2022-12-07T02:12:34.802Z,6.2
2022-12-07T02:13:34.839Z,6.2
2022-12-07T02:14:34.808Z,6.2
2022-12-07T02:15:34.855Z,6.2
2022-12-07T02:16:34.829Z,6.2
2022-12-07T02:17:34.819Z,6.3
2022-12-07T02:18:34.804Z,6.3
2022-12-07T02:19:34.988Z,6.3
2022-12-07T02:20:34.879Z,6.3
2022-12-07T02:21:34.834Z,6.2
2022-12-07T02:22:34.823Z,6.2
2022-12-07T02:23:34.819Z,6.2
2022-12-07T02:24:34.808Z,6.2
2022-12-07T02:25:34.804Z,6.2
2022-12-07T02:26:34.819Z,6.2
2022-12-07T02:27:34.808Z,6.2
2022-12-07T02:28:34.811Z,6.2
2022-12-07T02:29:34.860Z,6.2
2022-12-07T02:30:34.952Z,6.2
2022-12-07T02:31:34.979Z,6.2
2022-12-07T02:32:34.832Z,6.2
2022-12-07T02:33:34.802Z,6.2
2022-12-07T02:34:34.805Z,6.2
2022-12-07T02:35:34.814Z,6.2
2022-12-07T02:36:34.818Z,6.3
2022-12-07T02:37:34.808Z,6.2
2022-12-07T02:38:34.804Z,6.2
2022-12-07T02:39:34.810Z,6.2
2022-12-07T02:40:34.836Z,6.3
2022-12-07T02:41:34.814Z,6.3
2022-12-07T02:42:34.812Z,6.2
2022-12-07T02:43:34.809Z,6.3
2022-12-07T02:44:34.806Z,6.3
2022-12-07T02:45:34.799Z,6.3
2022-12-07T02:46:34.969Z,6.3
2022-12-07T02:47:34.912Z,6.3
2022-12-07T02:48:34.803Z,6.3
2022-12-07T02:49:34.844Z,6.3
2022-12-07T02:50:34.800Z,6.3
2022-12-07T02:51:34.823Z,6.3
2022-12-07T02:52:34.797Z,6.3
2022-12-07T02:53:34.831Z,6.2
2022-12-07T02:54:50.972Z,6.2
2022-12-07T02:55:34.826Z,6.2
2022-12-07T02:56:34.811Z,6.3
2022-12-07T02:57:34.796Z,6.3
2022-12-07T02:58:34.818Z,6.3
2022-12-07T02:59:34.800Z,6.3
2022-12-07T03:00:34.794Z,6.3
2022-12-07T03:01:34.898Z,6.3
2022-12-07T03:02:34.853Z,6.3
2022-12-07T03:03:34.805Z,6.3
2022-12-07T03:04:34.945Z,6.3
2022-12-07T03:05:34.803Z,6.3
2022-12-07T03:06:34.837Z,6.3
2022-12-07T03:07:34.878Z,6.3
2022-12-07T03:08:34.799Z,6.3
2022-12-07T03:09:34.803Z,6.3
2022-12-07T03:10:34.804Z,6.3
2022-12-07T03:11:34.816Z,6.3
2022-12-07T03:12:34.817Z,6.3
2022-12-07T03:13:34.875Z,6.2
2022-12-07T03:14:34.799Z,6.2
2022-12-07T03:15:34.869Z,6.2
2022-12-07T03:16:34.834Z,6.2
2022-12-07T03:17:34.802Z,6.2
2022-12-07T03:18:34.797Z,6.2
2022-12-07T03:19:34.795Z,6.2
2022-12-07T03:20:34.813Z,6.2
2022-12-07T03:21:34.823Z,6.2
2022-12-07T03:22:34.867Z,6.2
2022-12-07T03:23:34.799Z,6.3
2022-12-07T03:24:34.830Z,6.2
2022-12-07T03:25:34.802Z,6.3
2022-12-07T03:26:34.832Z,6.2
2022-12-07T03:27:34.869Z,6.3
2022-12-07T03:28:34.802Z,6.2
2022-12-07T03:29:34.819Z,6.2
2022-12-07T03:30:34.803Z,6.2
2022-12-07T03:31:34.887Z,6.2
2022-12-07T03:32:34.813Z,6.3
2022-12-07T03:33:34.819Z,6.3
2022-12-07T03:34:35.026Z,6.2
2022-12-07T03:35:34.807Z,6.2
2022-12-07T03:36:34.835Z,6.2
2022-12-07T03:37:34.803Z,6.2
2022-12-07T03:38:34.806Z,6.2
2022-12-07T03:39:34.798Z,6.2
2022-12-07T03:40:34.817Z,6.2
2022-12-07T03:41:34.820Z,6.2
2022-12-07T03:42:34.800Z,6.2
2022-12-07T03:43:34.834Z,6.2
2022-12-07T03:44:34.850Z,6.2
2022-12-07T03:45:34.799Z,6.2
2022-12-07T03:46:34.940Z,6.2
2022-12-07T03:47:34.799Z,6.2
2022-12-07T03:48:34.802Z,6.2
2022-12-07T03:49:34.805Z,6.2
2022-12-07T03:50:34.807Z,6.2
2022-12-07T03:51:34.817Z,6.2
2022-12-07T03:52:34.799Z,6.2
2022-12-07T03:53:34.859Z,6.2
2022-12-07T03:54:57.022Z,6.2
2022-12-07T03:55:34.888Z,6.2
2022-12-07T03:56:34.818Z,6.2
2022-12-07T03:57:34.803Z,6.2
2022-12-07T03:58:34.795Z,6.2
2022-12-07T03:59:34.799Z,6.2
2022-12-07T04:00:34.813Z,6.2
2022-12-07T04:01:34.919Z,6.2
2022-12-07T04:02:34.874Z,6.2
2022-12-07T04:03:34.811Z,6.2
2022-12-07T04:04:34.822Z,6.2
2022-12-07T04:05:34.806Z,6.2
2022-12-07T04:06:34.819Z,6.2
2022-12-07T04:07:34.870Z,6.2
2022-12-07T04:08:34.802Z,6.2
2022-12-07T04:09:34.800Z,6.2
2022-12-07T04:10:34.800Z,6.2
2022-12-07T04:11:34.842Z,6.2
2022-12-07T04:12:34.837Z,6.3
2022-12-07T04:13:34.804Z,6.3
2022-12-07T04:14:34.807Z,6.3
2022-12-07T04:15:34.816Z,6.3
2022-12-07T04:16:38.489Z,6.2
2022-12-07T04:17:34.806Z,6.3
2022-12-07T04:18:34.820Z,6.2
2022-12-07T04:19:34.826Z,6.2
2022-12-07T04:20:34.812Z,6.2
2022-12-07T04:21:34.827Z,6.2
2022-12-07T04:22:34.791Z,6.2
2022-12-07T04:23:34.810Z,6.2
2022-12-07T04:24:34.814Z,6.2
2022-12-07T04:25:34.819Z,6.2
2022-12-07T04:26:34.894Z,6.2
2022-12-07T04:27:34.790Z,6.2
2022-12-07T04:28:34.805Z,6.2
2022-12-07T04:29:34.809Z,6.3
2022-12-07T04:30:34.807Z,6.2
2022-12-07T04:31:34.906Z,6.2
2022-12-07T04:32:34.800Z,6.2
2022-12-07T04:33:34.805Z,6.2
2022-12-07T04:34:34.834Z,6.2
2022-12-07T04:35:34.819Z,6.2
2022-12-07T04:36:34.831Z,6.2
2022-12-07T04:37:34.862Z,6.2
2022-12-07T04:38:34.803Z,6.2
2022-12-07T04:39:34.806Z,6.2
2022-12-07T04:40:34.809Z,6.2
2022-12-07T04:41:34.817Z,6.2
2022-12-07T04:42:34.813Z,6.2
2022-12-07T04:43:34.816Z,6.2
2022-12-07T04:44:34.800Z,6.3
2022-12-07T04:45:34.803Z,6.2
2022-12-07T04:46:34.966Z,6.2
2022-12-07T04:47:34.799Z,6.2
2022-12-07T04:48:34.795Z,6.2
2022-12-07T04:49:34.856Z,6.2
2022-12-07T04:50:34.818Z,6.2
2022-12-07T04:51:34.800Z,6.2
2022-12-07T04:52:34.796Z,6.2
2022-12-07T04:53:34.791Z,6.2
2022-12-07T04:54:27.994Z,6.2
2022-12-07T04:55:34.792Z,6.2
2022-12-07T04:56:34.814Z,6.2
2022-12-07T04:57:34.818Z,6.2
2022-12-07T04:58:34.804Z,6.2
2022-12-07T04:59:34.816Z,6.2
2022-12-07T05:00:34.879Z,6.2
2022-12-07T05:01:34.797Z,6.2
2022-12-07T05:02:34.931Z,6.2
2022-12-07T05:03:34.799Z,6.2
2022-12-07T05:04:34.803Z,6.2
2022-12-07T05:05:34.818Z,6.2
2022-12-07T05:06:34.870Z,6.1
2022-12-07T05:07:34.825Z,6.2
2022-12-07T05:08:34.868Z,6.2
2022-12-07T05:09:34.793Z,6.2
2022-12-07T05:10:34.803Z,6.2
2022-12-07T05:11:34.831Z,6.2
2022-12-07T05:12:34.788Z,6.2
2022-12-07T05:13:34.821Z,6.2
2022-12-07T05:14:34.794Z,6.2
2022-12-07T05:15:34.814Z,6.2
2022-12-07T05:16:34.934Z,6.2
2022-12-07T05:17:34.802Z,6.2
2022-12-07T05:18:34.794Z,6.2
2022-12-07T05:19:34.798Z,6.2
2022-12-07T05:20:39.254Z,6.2
2022-12-07T05:21:34.819Z,6.2
2022-12-07T05:22:34.812Z,6.3
2022-12-07T05:23:34.799Z,6.3
2022-12-07T05:24:34.817Z,6.3
2022-12-07T05:25:34.803Z,6.2
2022-12-07T05:26:34.820Z,6.2
2022-12-07T05:27:34.787Z,6.2
2022-12-07T05:28:34.859Z,6.2
2022-12-07T05:29:34.800Z,6.2
2022-12-07T05:30:34.820Z,6.2
2022-12-07T05:31:34.904Z,6.2
2022-12-07T05:32:35.018Z,6.2
2022-12-07T05:33:34.818Z,6.2
2022-12-07T05:34:34.787Z,6.2
2022-12-07T05:35:34.818Z,6.2
2022-12-07T05:36:34.832Z,6.2
2022-12-07T05:37:34.793Z,6.2
2022-12-07T05:38:34.797Z,6.2
2022-12-07T05:39:35.006Z,6.2
2022-12-07T05:40:35.042Z,6.2
2022-12-07T05:41:34.814Z,6.2
2022-12-07T05:42:34.803Z,6.2
2022-12-07T05:43:34.809Z,6.2
2022-12-07T05:44:34.800Z,6.2
2022-12-07T05:45:34.893Z,6.2
2022-12-07T05:46:34.799Z,6.2
2022-12-07T05:47:34.816Z,6.2
2022-12-07T05:48:34.794Z,6.2
2022-12-07T05:49:34.789Z,6.2
2022-12-07T05:50:34.835Z,6.2
2022-12-07T05:51:34.820Z,6.2
2022-12-07T05:52:34.798Z,6.2
2022-12-07T05:53:34.814Z,6.2
2022-12-07T05:54:34.797Z,6.2
2022-12-07T05:55:34.803Z,6.2
2022-12-07T05:56:34.837Z,6.2
2022-12-07T05:57:34.807Z,6.3
2022-12-07T05:58:34.810Z,6.2
2022-12-07T05:59:34.849Z,6.2
2022-12-07T06:00:34.802Z,6.2
2022-12-07T06:01:34.804Z,6.2
2022-12-07T06:02:34.930Z,6.2
2022-12-07T06:03:34.842Z,6.2
2022-12-07T06:04:34.831Z,6.2
2022-12-07T06:05:34.824Z,6.2
2022-12-07T06:06:34.890Z,6.2
2022-12-07T06:07:34.812Z,6.2
2022-12-07T06:08:34.785Z,6.2
2022-12-07T06:09:34.808Z,6.2
2022-12-07T06:10:34.875Z,6.2
2022-12-07T06:11:34.801Z,6.2
2022-12-07T06:12:34.833Z,6.2
2022-12-07T06:13:34.790Z,6.2
2022-12-07T06:14:34.790Z,6.2
2022-12-07T06:15:34.782Z,6.2
2022-12-07T06:16:34.893Z,6.2
2022-12-07T06:17:34.818Z,6.2
2022-12-07T06:18:34.792Z,6.2
2022-12-07T06:19:34.851Z,6.2
2022-12-07T06:20:34.794Z,6.2
2022-12-07T06:21:34.801Z,6.2
2022-12-07T06:22:34.809Z,6.2
2022-12-07T06:23:34.807Z,6.2
2022-12-07T06:24:34.802Z,6.2
2022-12-07T06:25:34.783Z,6.2
2022-12-07T06:26:34.815Z,6.2
2022-12-07T06:27:34.788Z,6.2
2022-12-07T06:28:34.869Z,6.2
2022-12-07T06:29:34.877Z,6.2
2022-12-07T06:30:34.815Z,6.2
2022-12-07T06:31:34.906Z,6.2
2022-12-07T06:32:34.820Z,6.2
2022-12-07T06:33:34.786Z,6.2
2022-12-07T06:34:34.783Z,6.2
2022-12-07T06:35:34.778Z,6.2
2022-12-07T06:36:34.812Z,6.1
2022-12-07T06:37:34.791Z,6.1
2022-12-07T06:38:34.800Z,6.1
2022-12-07T06:39:34.850Z,6.1
2022-12-07T06:40:34.794Z,6.1
2022-12-07T06:41:34.810Z,6.1
2022-12-07T06:42:34.780Z,6.1
2022-12-07T06:43:34.774Z,6.1
2022-12-07T06:44:34.794Z,6.1
2022-12-07T06:45:34.849Z,6.1
2022-12-07T06:46:34.805Z,6.1
2022-12-07T06:47:43.199Z,6.1
2022-12-07T06:48:34.835Z,6.1
2022-12-07T06:49:34.817Z,6.1
2022-12-07T06:50:34.856Z,6.1
2022-12-07T06:51:34.812Z,6.1
2022-12-07T06:52:34.802Z,6.1
2022-12-07T06:53:34.797Z,6.1
2022-12-07T06:54:34.804Z,6.1
2022-12-07T06:55:34.811Z,6.1
2022-12-07T06:56:34.786Z,6.1
2022-12-07T06:57:34.790Z,6.1
2022-12-07T06:58:34.813Z,6.1
2022-12-07T06:59:34.925Z,6.1
2022-12-07T07:00:34.789Z,6.1
2022-12-07T07:01:34.896Z,6.1
2022-12-07T07:02:34.811Z,6.1
2022-12-07T07:03:34.782Z,6.1
2022-12-07T07:04:35.176Z,6.1
2022-12-07T07:05:34.801Z,6.1
2022-12-07T07:06:34.811Z,6.1
2022-12-07T07:07:51.749Z,6.1
2022-12-07T07:08:34.870Z,6
2022-12-07T07:09:34.802Z,6
2022-12-07T07:10:34.801Z,6.1
2022-12-07T07:11:34.811Z,6
2022-12-07T07:12:34.790Z,6
2022-12-07T07:13:34.799Z,6.1
2022-12-07T07:14:34.796Z,6.1
2022-12-07T07:15:44.784Z,6.1
2022-12-07T07:16:34.889Z,6.1
2022-12-07T07:17:34.794Z,6.1
2022-12-07T07:18:34.792Z,6.1
2022-12-07T07:19:34.785Z,6.1
2022-12-07T07:20:34.774Z,6.1
2022-12-07T07:21:34.813Z,6.1
2022-12-07T07:22:34.798Z,6.1
2022-12-07T07:23:34.782Z,6.1
2022-12-07T07:24:34.781Z,6.1
2022-12-07T07:25:34.841Z,6.1
2022-12-07T07:26:34.794Z,6.1
2022-12-07T07:27:34.792Z,6.1
2022-12-07T07:28:34.797Z,6.1
2022-12-07T07:29:34.769Z,6.1
2022-12-07T07:30:34.889Z,6.1
2022-12-07T07:31:35.002Z,6.1
2022-12-07T07:32:34.800Z,6.1
2022-12-07T07:33:34.768Z,6.2
2022-12-07T07:34:34.852Z,6.2
2022-12-07T07:35:34.786Z,6.2
2022-12-07T07:36:34.790Z,6.2
2022-12-07T07:37:34.776Z,6.2
2022-12-07T07:38:34.821Z,6.2
2022-12-07T07:39:34.769Z,6.2
2022-12-07T07:40:34.784Z,6.2
2022-12-07T07:41:34.805Z,6.2
2022-12-07T07:42:34.788Z,6.2
2022-12-07T07:43:34.786Z,6.2
2022-12-07T07:44:35.604Z,6.2
2022-12-07T07:45:34.827Z,6.2
2022-12-07T07:46:34.873Z,6.2
2022-12-07T07:47:34.770Z,6.1
2022-12-07T07:48:34.783Z,6.1
2022-12-07T07:49:34.782Z,6.2
2022-12-07T07:50:34.780Z,6.2
2022-12-07T07:51:34.794Z,6.2
2022-12-07T07:52:34.782Z,6.2
2022-12-07T07:53:34.794Z,6.2
2022-12-07T07:54:34.831Z,6.1
2022-12-07T07:55:34.769Z,6.1
2022-12-07T07:56:34.801Z,6.2
2022-12-07T07:57:34.775Z,6.2
2022-12-07T07:58:34.796Z,6.1
2022-12-07T07:59:34.782Z,6.1
2022-12-07T08:00:34.784Z,6.1
2022-12-07T08:01:34.876Z,6.1
2022-12-07T08:02:34.799Z,6.1
2022-12-07T08:03:34.856Z,6.1
2022-12-07T08:04:34.805Z,6.1
2022-12-07T08:05:34.789Z,6.1
2022-12-07T08:06:34.811Z,6.1
2022-12-07T08:07:34.857Z,6.1
2022-12-07T08:08:34.780Z,6.2
2022-12-07T08:09:34.802Z,6.2
2022-12-07T08:10:34.771Z,6.2
2022-12-07T08:11:34.816Z,6.2
2022-12-07T08:12:34.784Z,6.1
2022-12-07T08:13:34.770Z,6.2
2022-12-07T08:14:34.786Z,6.2
2022-12-07T08:15:51.063Z,6.1
2022-12-07T08:16:34.800Z,6.2
2022-12-07T08:17:34.799Z,6.2
2022-12-07T08:18:34.785Z,6.2
2022-12-07T08:19:34.796Z,6.2
2022-12-07T08:20:34.774Z,6.2
2022-12-07T08:21:34.813Z,6.2
2022-12-07T08:22:34.854Z,6.1
2022-12-07T08:23:39.548Z,6.2
2022-12-07T08:24:34.772Z,6.2
2022-12-07T08:25:34.783Z,6.2
2022-12-07T08:26:34.780Z,6.2
2022-12-07T08:27:34.834Z,6.2
2022-12-07T08:28:34.790Z,6.2
2022-12-07T08:29:34.778Z,6.2
2022-12-07T08:30:34.794Z,6.2
2022-12-07T08:31:34.847Z,6.2
2022-12-07T08:32:34.773Z,6.2
2022-12-07T08:33:34.780Z,6.2
2022-12-07T08:34:34.867Z,6.2
2022-12-07T08:35:34.770Z,6.2
2022-12-07T08:36:34.828Z,6.2
2022-12-07T08:37:34.789Z,6.2
2022-12-07T08:38:34.776Z,6.2
2022-12-07T08:39:34.795Z,6.2
2022-12-07T08:40:34.783Z,6.2
2022-12-07T08:41:34.796Z,6.2
2022-12-07T08:42:34.775Z,6.2
2022-12-07T08:43:34.770Z,6.2
2022-12-07T08:44:34.768Z,6.2
2022-12-07T08:45:34.788Z,6.2
2022-12-07T08:46:34.868Z,6.2
2022-12-07T08:47:34.829Z,6.2
2022-12-07T08:48:34.780Z,6.2
2022-12-07T08:49:34.862Z,6.2
2022-12-07T08:50:34.780Z,6.2
2022-12-07T08:51:34.794Z,6.2
2022-12-07T08:52:34.769Z,6.2
2022-12-07T08:53:34.778Z,6.2
2022-12-07T08:54:34.779Z,6.2
2022-12-07T08:55:34.802Z,6.2
2022-12-07T08:56:34.795Z,6.2
2022-12-07T08:57:34.783Z,6.2
2022-12-07T08:58:34.886Z,6.2
2022-12-07T08:59:34.768Z,6.2
2022-12-07T09:00:34.767Z,6.2
2022-12-07T09:01:34.870Z,6.3
2022-12-07T09:02:34.797Z,6.2
2022-12-07T09:03:34.779Z,6.2
2022-12-07T09:04:35.059Z,6.2
2022-12-07T09:05:34.839Z,6.2
2022-12-07T09:06:34.925Z,6.2
2022-12-07T09:07:34.803Z,6.2
2022-12-07T09:08:34.782Z,6.2
2022-12-07T09:09:34.777Z,6.2
2022-12-07T09:10:34.775Z,6.2
2022-12-07T09:11:34.794Z,6.2
2022-12-07T09:12:34.791Z,6.2
2022-12-07T09:13:34.800Z,6.2
2022-12-07T09:14:34.900Z,6.2
2022-12-07T09:15:40.559Z,6.2
2022-12-07T09:16:34.954Z,6.2
2022-12-07T09:17:34.776Z,6.2
2022-12-07T09:18:34.780Z,6.2
2022-12-07T09:19:34.774Z,6.2
2022-12-07T09:20:34.792Z,6.2
2022-12-07T09:21:34.787Z,6.2
2022-12-07T09:22:34.782Z,6.2
2022-12-07T09:24:34.781Z,6.2
2022-12-07T09:25:28.295Z,6.2
2022-12-07T09:26:34.800Z,6.2
2022-12-07T09:27:34.822Z,6.2
2022-12-07T09:28:34.793Z,6.2
2022-12-07T09:29:34.774Z,6.2
2022-12-07T09:30:47.405Z,6.2
2022-12-07T09:31:34.915Z,6.2
2022-12-07T09:32:34.908Z,6.2
2022-12-07T09:33:34.772Z,6.2
2022-12-07T09:34:34.852Z,6.2
2022-12-07T09:35:34.785Z,6.2
2022-12-07T09:36:34.830Z,6.2
2022-12-07T09:37:34.808Z,6.2
2022-12-07T09:38:34.781Z,6.2
2022-12-07T09:39:34.772Z,6.2
2022-12-07T09:40:34.788Z,6.2
2022-12-07T09:41:34.785Z,6.2
2022-12-07T09:42:34.853Z,6.3
2022-12-07T09:43:34.815Z,6.3
2022-12-07T09:44:34.776Z,6.3
2022-12-07T09:45:34.773Z,6.3
2022-12-07T09:46:34.888Z,6.3
2022-12-07T09:47:34.854Z,6.3
2022-12-07T09:48:34.770Z,6.3
2022-12-07T09:49:34.780Z,6.3
2022-12-07T09:50:34.780Z,6.3
2022-12-07T09:51:34.864Z,6.3
2022-12-07T09:52:38.717Z,6.3
2022-12-07T09:53:34.773Z,6.3
2022-12-07T09:54:34.762Z,6.4
2022-12-07T09:55:34.803Z,6.4
2022-12-07T09:56:34.917Z,6.4
2022-12-07T09:57:34.762Z,6.4
2022-12-07T09:58:34.769Z,6.4
2022-12-07T09:59:36.712Z,6.4
2022-12-07T10:00:34.826Z,6.4
2022-12-07T10:01:34.810Z,6.4
2022-12-07T10:02:34.772Z,6.4
2022-12-07T10:03:34.779Z,6.4
2022-12-07T10:04:34.828Z,6.4
2022-12-07T10:05:34.861Z,6.4
2022-12-07T10:06:34.821Z,6.4
2022-12-07T10:07:34.888Z,6.4
2022-12-07T10:08:34.762Z,6.4
2022-12-07T10:09:34.778Z,6.4
2022-12-07T10:10:38.337Z,6.4
2022-12-07T10:11:34.819Z,6.4
2022-12-07T10:12:34.765Z,6.4
2022-12-07T10:13:34.771Z,6.4
2022-12-07T10:15:05.400Z,6.5
2022-12-07T10:15:34.770Z,6.5
2022-12-07T10:16:34.865Z,6.5
2022-12-07T10:17:34.794Z,6.4
2022-12-07T10:18:34.777Z,6.4
2022-12-07T10:19:34.772Z,6.4
2022-12-07T10:20:34.805Z,6.4
2022-12-07T10:21:34.809Z,6.4
2022-12-07T10:22:34.759Z,6.4
2022-12-07T10:23:34.782Z,6.4
2022-12-07T10:24:34.782Z,6.4
2022-12-07T10:25:34.780Z,6.4
2022-12-07T10:26:34.799Z,6.4
2022-12-07T10:27:34.767Z,6.4
2022-12-07T10:28:40.379Z,6.4
2022-12-07T10:29:34.804Z,6.5
2022-12-07T10:30:34.779Z,6.5
2022-12-07T10:31:34.867Z,6.5
2022-12-07T10:32:34.790Z,6.5
2022-12-07T10:33:34.769Z,6.5
2022-12-07T10:34:40.948Z,6.5
2022-12-07T10:35:34.779Z,6.5
2022-12-07T10:36:34.794Z,6.4
2022-12-07T10:37:34.761Z,6.5
2022-12-07T10:38:34.805Z,6.5
2022-12-07T10:39:34.764Z,6.5
2022-12-07T10:40:34.769Z,6.5
2022-12-07T10:41:34.797Z,6.4
2022-12-07T10:42:34.812Z,6.4
2022-12-07T10:43:34.771Z,6.4
2022-12-07T10:44:34.795Z,6.4
2022-12-07T10:45:35.957Z,6.3
2022-12-07T10:46:34.998Z,6.3
2022-12-07T10:47:34.766Z,6.4
2022-12-07T10:48:34.784Z,6.4
2022-12-07T10:49:34.780Z,6.4
2022-12-07T10:50:34.771Z,6.4
2022-12-07T10:51:39.346Z,6.4
2022-12-07T10:52:34.762Z,6.3
2022-12-07T10:53:34.777Z,6.3
2022-12-07T10:54:34.770Z,6.3
2022-12-07T10:55:34.774Z,6.4
2022-12-07T10:56:34.780Z,6.4
2022-12-07T10:57:34.771Z,6.5
2022-12-07T10:58:34.784Z,6.5
2022-12-07T10:59:34.776Z,6.4
2022-12-07T11:00:34.800Z,6.4
2022-12-07T11:01:34.896Z,6.4
2022-12-07T11:02:34.858Z,6.4
2022-12-07T11:03:34.791Z,6.5
2022-12-07T11:04:34.766Z,6.5
2022-12-07T11:05:34.771Z,6.5
2022-12-07T11:06:34.804Z,6.4
2022-12-07T11:07:34.814Z,6.4
2022-12-07T11:08:34.805Z,6.4
2022-12-07T11:10:06.586Z,6.4
2022-12-07T11:10:34.777Z,6.3
2022-12-07T11:11:34.805Z,6.4
2022-12-07T11:12:34.760Z,6.4
2022-12-07T11:13:34.763Z,6.4
2022-12-07T11:14:34.768Z,6.4
2022-12-07T11:15:34.777Z,6.4
2022-12-07T11:16:34.829Z,6.4
2022-12-07T11:17:34.766Z,6.4
2022-12-07T11:18:34.786Z,6.3
2022-12-07T11:19:34.771Z,6.3
2022-12-07T11:20:34.770Z,6.3
2022-12-07T11:21:34.780Z,6.3
2022-12-07T11:22:34.822Z,6.3
2022-12-07T11:23:34.781Z,6.3
2022-12-07T11:24:34.767Z,6.4
2022-12-07T11:25:34.757Z,6.3
2022-12-07T11:26:34.772Z,6.4
2022-12-07T11:27:34.778Z,6.4
2022-12-07T11:28:34.766Z,6.4
2022-12-07T11:29:34.767Z,6.4
2022-12-07T11:30:34.776Z,6.4
2022-12-07T11:31:34.894Z,6.3
2022-12-07T11:32:34.759Z,6.3
2022-12-07T11:33:34.830Z,6.2
2022-12-07T11:34:34.771Z,6.2
2022-12-07T11:35:34.763Z,6.2
2022-12-07T11:36:34.774Z,6.2
2022-12-07T11:37:38.127Z,6.2
2022-12-07T11:38:34.778Z,6.3
2022-12-07T11:39:34.765Z,6.3
2022-12-07T11:40:34.796Z,6.3
2022-12-07T11:41:34.793Z,6.3
2022-12-07T11:42:34.815Z,6.3
2022-12-07T11:43:34.876Z,6.3
2022-12-07T11:44:34.771Z,6.3
2022-12-07T11:45:34.771Z,6.3
2022-12-07T11:46:44.874Z,6.4
2022-12-07T11:47:34.772Z,6.3
2022-12-07T11:48:34.784Z,6.3
2022-12-07T11:49:34.768Z,6.3
2022-12-07T11:50:34.770Z,6.3
2022-12-07T11:51:34.772Z,6.3
2022-12-07T11:52:34.781Z,6.3
2022-12-07T11:53:34.780Z,6.4
2022-12-07T11:54:34.758Z,6.4
2022-12-07T11:55:34.855Z,6.4
2022-12-07T11:56:34.773Z,6.4
2022-12-07T11:57:34.776Z,6.4
2022-12-07T11:58:34.766Z,6.4
2022-12-07T11:59:34.786Z,6.3
2022-12-07T12:00:34.779Z,6.4
2022-12-07T12:01:34.795Z,6.4
2022-12-07T12:02:34.768Z,6.4
2022-12-07T12:03:34.899Z,6.4
2022-12-07T12:04:34.855Z,6.4
2022-12-07T12:05:34.763Z,6.5
2022-12-07T12:06:34.859Z,6.5
2022-12-07T12:10:34.775Z,6.6
2022-12-07T12:11:34.796Z,6.6
2022-12-07T12:14:35.559Z,6.5
2022-12-07T12:15:34.833Z,6.5
2022-12-07T12:16:34.822Z,6.5
2022-12-07T12:17:34.768Z,6.4
2022-12-07T12:18:34.762Z,6.4
2022-12-07T12:19:34.789Z,6.4
2022-12-07T12:20:34.773Z,6.4
2022-12-07T12:21:34.814Z,6.4
2022-12-07T12:22:34.770Z,6.3
2022-12-07T12:23:34.780Z,6.4
2022-12-07T12:24:34.843Z,6.3
2022-12-07T12:25:34.820Z,6.3
2022-12-07T12:26:34.776Z,6.3
2022-12-07T12:27:34.769Z,6.3
2022-12-07T12:28:34.779Z,6.2
2022-12-07T12:29:34.772Z,6.1
2022-12-07T12:30:34.793Z,6.2
2022-12-07T12:31:34.817Z,6.2
2022-12-07T12:32:34.763Z,6.2
2022-12-07T12:33:34.796Z,6.3
2022-12-07T12:34:34.765Z,6.3
2022-12-07T12:35:34.774Z,6.3
2022-12-07T12:36:34.772Z,6.2
2022-12-07T12:37:34.765Z,6.3
2022-12-07T12:38:34.775Z,6.3
2022-12-07T12:39:34.765Z,6.3
2022-12-07T12:40:34.775Z,6.3
2022-12-07T12:41:34.763Z,6.2
2022-12-07T12:42:34.788Z,6.2
2022-12-07T12:43:34.817Z,6.1
2022-12-07T12:44:34.756Z,6.1
2022-12-07T12:45:34.824Z,6.1
2022-12-07T12:46:51.112Z,6.1
2022-12-07T12:47:34.759Z,6.1
2022-12-07T12:48:34.775Z,6.1
2022-12-07T12:49:34.764Z,6.1
2022-12-07T12:50:34.767Z,6.1
2022-12-07T12:51:34.762Z,6.1
2022-12-07T12:52:34.766Z,6.1
2022-12-07T12:53:34.765Z,6.1
2022-12-07T12:54:34.765Z,6.1
2022-12-07T12:55:34.771Z,6.1
2022-12-07T12:56:34.773Z,6.1
2022-12-07T12:57:34.763Z,6.1
2022-12-07T12:58:34.762Z,6.1
2022-12-07T12:59:34.771Z,6.1
2022-12-07T13:00:34.767Z,6
2022-12-07T13:01:34.820Z,6.1
2022-12-07T13:02:34.814Z,6.1
2022-12-07T13:03:34.774Z,6
2022-12-07T13:04:34.754Z,6
2022-12-07T13:05:34.773Z,6.1
2022-12-07T13:06:34.792Z,6.1
2022-12-07T13:07:34.840Z,6.1
2022-12-07T13:08:35.446Z,6.2
2022-12-07T13:09:34.790Z,6.2
2022-12-07T13:10:34.770Z,6.1
2022-12-07T13:11:34.769Z,6.1
2022-12-07T13:12:34.771Z,6.1
2022-12-07T13:13:34.793Z,6.1
2022-12-07T13:14:34.767Z,6.1
2022-12-07T13:15:34.771Z,6
2022-12-07T13:16:34.829Z,6
2022-12-07T13:17:34.818Z,6
2022-12-07T13:18:34.775Z,5.9
2022-12-07T13:19:34.765Z,5.9
2022-12-07T13:20:34.755Z,5.9
2022-12-07T13:21:34.771Z,5.9
2022-12-07T13:22:34.763Z,5.9
2022-12-07T13:23:34.762Z,5.9
2022-12-07T13:24:34.766Z,5.9
2022-12-07T13:25:34.771Z,5.9
2022-12-07T13:26:34.773Z,5.9
2022-12-07T13:27:34.772Z,5.8
2022-12-07T13:28:34.772Z,5.9
2022-12-07T13:29:34.761Z,5.9
2022-12-07T13:30:34.864Z,5.9
2022-12-07T13:31:34.760Z,5.9
2022-12-07T13:32:34.767Z,5.9
2022-12-07T13:33:34.760Z,5.9
2022-12-07T13:34:34.769Z,5.9
2022-12-07T13:35:34.774Z,5.8
2022-12-07T13:36:34.780Z,5.8
2022-12-07T13:37:38.557Z,5.8
2022-12-07T13:38:34.827Z,5.8
2022-12-07T13:39:34.762Z,5.8
2022-12-07T13:40:34.769Z,5.9
2022-12-07T13:41:34.769Z,5.9
2022-12-07T13:42:34.773Z,5.9
2022-12-07T13:43:34.773Z,5.9
2022-12-07T13:44:39.117Z,5.9
2022-12-07T13:45:34.767Z,5.9
2022-12-07T13:46:56.954Z,5.9
2022-12-07T13:47:34.769Z,5.9
2022-12-07T13:48:34.788Z,5.9
2022-12-07T13:49:34.783Z,5.9
2022-12-07T13:50:34.758Z,5.9
2022-12-07T13:51:34.760Z,5.9
2022-12-07T13:52:34.761Z,5.9
2022-12-07T13:53:34.778Z,5.9
2022-12-07T13:54:34.760Z,5.9